Time;durP1;ratioP1;P1;durP2;ratioP2;P2;SDS_P1;SDS_P2;PMS_P1;PMS_P2;Temp;Humidity;BMP_temperature;BMP_pressure;BME280_temperature;BME280_humidity;BME280_pressure;Samples;Min_cycle;Max_cycle;Signal;HPM_P1;HPM_P2
2022/03/14 00:01:04;;;;;;;66.77;28.23;;;1.00;99.90;;;;;;5091873;28;20650;-66
2022/03/14 00:03:48;;;;;;;64.77;27.80;;;0.90;99.90;;;;;;5091422;28;20290;-66
2022/03/14 00:06:16;;;;;;;58.80;26.40;;;0.90;99.90;;;;;;5091034;28;20236;-66
2022/03/14 00:08:45;;;;;;;58.30;26.73;;;0.90;99.90;;;;;;5091856;28;20546;-66
2022/03/14 00:11:13;;;;;;;68.03;28.63;;;0.90;99.90;;;;;;5091591;28;20204;-65
2022/03/14 00:13:40;;;;;;;67.20;27.60;;;0.90;99.90;;;;;;5091406;28;20219;-65
2022/03/14 00:16:08;;;;;;;59.83;28.13;;;0.90;99.90;;;;;;5091124;28;20204;-66
2022/03/14 00:18:35;;;;;;;62.67;27.37;;;0.90;99.90;;;;;;5091626;28;20668;-66
2022/03/14 00:21:02;;;;;;;73.17;30.30;;;0.80;99.90;;;;;;5094641;28;20208;-66
2022/03/14 00:23:30;;;;;;;60.57;27.53;;;0.80;99.90;;;;;;5094871;28;20204;-67
2022/03/14 00:25:58;;;;;;;55.27;26.67;;;0.80;99.90;;;;;;5094828;28;20228;-66
2022/03/14 00:28:25;;;;;;;57.27;26.20;;;0.80;99.90;;;;;;5094675;28;20219;-65
2022/03/14 00:30:52;;;;;;;50.13;25.23;;;0.90;99.90;;;;;;5094908;28;20318;-67
2022/03/14 00:33:19;;;;;;;44.40;23.33;;;0.90;99.90;;;;;;5094965;28;20200;-66
2022/03/14 00:35:46;;;;;;;50.93;25.30;;;0.90;99.90;;;;;;5095270;28;20646;-66
2022/03/14 00:38:16;;;;;;;51.57;26.57;;;0.90;99.90;;;;;;5094729;28;20204;-65
2022/03/14 00:40:44;;;;;;;47.43;25.57;;;0.90;99.90;;;;;;5094572;28;20290;-66
2022/03/14 00:43:11;;;;;;;47.50;24.63;;;0.90;99.90;;;;;;5094365;28;20204;-66
2022/03/14 00:45:38;;;;;;;47.03;24.43;;;0.90;99.90;;;;;;5094346;28;20228;-66
2022/03/14 00:48:06;;;;;;;47.63;24.00;;;0.90;99.90;;;;;;5094543;28;20545;-66
2022/03/14 00:50:34;;;;;;;52.23;25.27;;;0.90;99.90;;;;;;5094427;28;20203;-65
2022/03/14 00:53:01;;;;;;;48.27;23.93;;;0.90;99.90;;;;;;5094125;28;20210;-66
2022/03/14 00:55:28;;;;;;;51.67;25.90;;;0.90;99.90;;;;;;5094595;28;20219;-66
2022/03/14 00:57:56;;;;;;;56.47;27.43;;;0.90;99.90;;;;;;5094314;28;20255;-67
2022/03/14 01:00:24;;;;;;;56.07;28.23;;;0.90;99.90;;;;;;5094358;28;20208;-66
2022/03/14 01:02:52;;;;;;;57.57;27.73;;;0.90;99.90;;;;;;5093928;28;20210;-66
2022/03/14 01:05:20;;;;;;;63.83;29.20;;;1.00;99.90;;;;;;5093941;28;20702;-66
2022/03/14 01:07:47;;;;;;;67.50;31.00;;;1.00;99.90;;;;;;5094018;28;20189;-67
2022/03/14 01:10:14;;;;;;;67.87;30.80;;;0.90;99.90;;;;;;5094288;28;20203;-66
2022/03/14 01:12:42;;;;;;;79.13;32.00;;;0.90;99.90;;;;;;5093909;28;20215;-66
2022/03/14 01:15:11;;;;;;;78.90;32.23;;;0.90;99.90;;;;;;5093552;28;20207;-66
2022/03/14 01:17:40;;;;;;;65.40;30.00;;;0.80;99.90;;;;;;5093756;28;20211;-66
2022/03/14 01:20:09;;;;;;;53.57;26.50;;;0.80;99.90;;;;;;5093588;28;20200;-66
2022/03/14 01:22:37;;;;;;;59.37;27.87;;;0.80;99.90;;;;;;5093711;28;20203;-66
2022/03/14 01:25:04;;;;;;;62.57;27.37;;;0.80;99.90;;;;;;5093604;28;20228;-66
2022/03/14 01:27:32;;;;;;;60.43;27.93;;;0.80;99.90;;;;;;5093568;28;20208;-65
2022/03/14 01:29:59;;;;;;;62.97;30.33;;;0.90;99.90;;;;;;5093560;28;20211;-66
2022/03/14 01:32:27;;;;;;;84.43;34.20;;;0.90;99.90;;;;;;5093791;28;20208;-65
2022/03/14 01:34:54;;;;;;;84.13;35.23;;;0.90;99.90;;;;;;5093710;28;20216;-66
2022/03/14 01:37:22;;;;;;;82.00;34.13;;;0.90;99.90;;;;;;5093339;28;20208;-66
2022/03/14 01:39:49;;;;;;;94.23;38.83;;;0.90;99.90;;;;;;5093093;28;20203;-67
2022/03/14 01:42:18;;;;;;;95.97;38.97;;;0.90;99.90;;;;;;5093627;28;20546;-66
2022/03/14 01:44:46;;;;;;;98.17;40.47;;;0.90;99.90;;;;;;5093160;28;20261;-67
2022/03/14 01:47:14;;;;;;;99.97;39.73;;;0.90;99.90;;;;;;5093544;28;20632;-65
2022/03/14 01:49:42;;;;;;;116.40;44.57;;;0.90;99.90;;;;;;5093323;28;20204;-67
2022/03/14 01:52:10;;;;;;;104.50;44.60;;;0.90;99.90;;;;;;5093341;28;20285;-68
2022/03/14 01:54:38;;;;;;;98.10;40.27;;;0.80;99.90;;;;;;5093375;28;20298;-66
2022/03/14 01:57:06;;;;;;;89.83;36.87;;;0.80;99.90;;;;;;5092809;28;20389;-66
2022/03/14 01:59:33;;;;;;;82.50;33.83;;;0.70;99.90;;;;;;5093272;28;20203;-66
2022/03/14 02:02:00;;;;;;;85.17;34.23;;;0.70;99.90;;;;;;5092979;28;20208;-66
2022/03/14 02:04:28;;;;;;;83.83;33.90;;;0.80;99.90;;;;;;5092832;28;20204;-65
2022/03/14 02:06:57;;;;;;;84.03;35.53;;;0.80;99.90;;;;;;5092387;28;20232;-66
2022/03/14 02:09:24;;;;;;;94.00;37.23;;;0.80;99.90;;;;;;5092840;28;20216;-66
2022/03/14 02:12:05;;;;;;;96.87;37.93;;;0.80;99.90;;;;;;5092897;28;20204;-66
2022/03/14 02:14:32;;;;;;;92.37;35.60;;;0.80;99.90;;;;;;5092668;28;20188;-66
2022/03/14 02:16:59;;;;;;;93.30;36.90;;;0.80;99.90;;;;;;5092512;28;20200;-65
2022/03/14 02:19:26;;;;;;;85.83;36.60;;;0.80;99.90;;;;;;5092527;28;20246;-65
2022/03/14 02:21:55;;;;;;;82.20;36.03;;;0.80;99.90;;;;;;5092760;28;20560;-66
2022/03/14 02:24:22;;;;;;;79.13;33.77;;;0.80;99.90;;;;;;5092756;28;20673;-68
2022/03/14 02:26:49;;;;;;;73.27;31.97;;;0.80;99.90;;;;;;5092142;28;20219;-67
2022/03/14 02:29:17;;;;;;;79.73;34.20;;;0.80;99.90;;;;;;5092940;28;20607;-66
2022/03/14 02:31:45;;;;;;;74.60;32.33;;;0.80;99.90;;;;;;5092310;28;20303;-66
2022/03/14 02:34:12;;;;;;;70.13;30.37;;;0.80;99.90;;;;;;5092763;28;20212;-66
2022/03/14 02:36:39;;;;;;;63.90;29.07;;;0.80;99.90;;;;;;5092319;28;20673;-66
2022/03/14 02:39:08;;;;;;;68.47;31.13;;;0.80;99.90;;;;;;5092532;28;20212;-65
2022/03/14 02:41:36;;;;;;;60.37;29.87;;;0.80;99.90;;;;;;5091945;28;20204;-66
2022/03/14 02:44:06;;;;;;;61.80;29.33;;;0.80;99.90;;;;;;5091982;28;20200;-67
2022/03/14 02:46:34;;;;;;;65.80;28.60;;;0.70;99.90;;;;;;5092170;28;20204;-66
2022/03/14 02:49:01;;;;;;;55.80;26.27;;;0.70;99.90;;;;;;5092410;28;20200;-66
2022/03/14 02:51:28;;;;;;;53.13;25.67;;;0.70;99.90;;;;;;5092153;28;20377;-68
2022/03/14 02:53:57;;;;;;;50.50;24.73;;;0.70;99.90;;;;;;5091882;28;20214;-65
2022/03/14 02:56:25;;;;;;;57.37;27.17;;;0.70;99.90;;;;;;5092260;28;20200;-66
2022/03/14 02:58:53;;;;;;;63.17;29.43;;;0.70;99.90;;;;;;5091984;28;20212;-66
2022/03/14 03:01:21;;;;;;;68.80;30.67;;;0.70;99.90;;;;;;5092169;28;20207;-65
2022/03/14 03:03:50;;;;;;;74.77;31.70;;;0.80;99.90;;;;;;5092185;28;20204;-66
2022/03/14 03:06:22;;;;;;;73.40;32.27;;;0.80;99.90;;;;;;5091760;28;20244;-66
2022/03/14 03:08:50;;;;;;;75.33;30.93;;;0.80;99.90;;;;;;5091801;28;20196;-67
2022/03/14 03:11:17;;;;;;;76.37;31.97;;;0.80;99.90;;;;;;5091878;28;20211;-66
2022/03/14 03:13:47;;;;;;;64.70;30.13;;;0.80;99.90;;;;;;5092269;28;20200;-66
2022/03/14 03:16:16;;;;;;;67.03;28.97;;;0.80;99.90;;;;;;5091997;28;20333;-66
2022/03/14 03:18:45;;;;;;;61.67;28.70;;;0.70;99.90;;;;;;5091633;28;20303;-66
2022/03/14 03:21:12;;;;;;;55.80;27.27;;;0.70;99.90;;;;;;5091769;28;20204;-67
2022/03/14 03:23:40;;;;;;;59.47;28.10;;;0.70;99.90;;;;;;5092003;28;20592;-67
2022/03/14 03:26:07;;;;;;;54.57;27.23;;;0.70;99.90;;;;;;5091923;28;20338;-67
2022/03/14 03:28:36;;;;;;;57.07;28.70;;;0.70;99.90;;;;;;5092044;28;20207;-67
2022/03/14 03:31:07;;;;;;;56.07;27.60;;;0.70;99.90;;;;;;5091695;28;20208;-66
2022/03/14 03:33:35;;;;;;;66.20;28.63;;;0.70;99.90;;;;;;5092022;28;20654;-67
2022/03/14 03:36:02;;;;;;;59.40;27.93;;;0.70;99.90;;;;;;5092151;28;20562;-66
2022/03/14 03:38:30;;;;;;;59.13;27.63;;;0.70;99.90;;;;;;5091613;28;20207;-67
2022/03/14 03:40:57;;;;;;;54.40;27.47;;;0.70;99.90;;;;;;5092102;28;20204;-65
2022/03/14 03:43:24;;;;;;;53.97;26.83;;;0.80;99.90;;;;;;5091914;28;20204;-66
2022/03/14 03:45:51;;;;;;;52.83;26.43;;;0.70;99.90;;;;;;5091426;28;20224;-66
2022/03/14 03:48:20;;;;;;;49.77;24.60;;;0.80;99.90;;;;;;5091627;28;20210;-66
2022/03/14 03:50:47;;;;;;;50.63;25.70;;;0.80;99.90;;;;;;5091335;28;20270;-67
2022/03/14 03:53:14;;;;;;;52.63;25.40;;;0.80;99.90;;;;;;5091897;28;20199;-66
2022/03/14 03:55:41;;;;;;;58.87;26.23;;;0.80;99.90;;;;;;5094543;28;20204;-65
2022/03/14 03:58:09;;;;;;;53.10;26.80;;;0.80;99.90;;;;;;5095308;28;20212;-64
2022/03/14 04:00:36;;;;;;;52.93;26.43;;;0.80;99.90;;;;;;5095232;28;20211;-65
2022/03/14 04:03:04;;;;;;;55.97;26.73;;;0.80;99.90;;;;;;5095183;28;20212;-67
2022/03/14 04:05:33;;;;;;;53.63;26.17;;;0.80;99.90;;;;;;5095194;28;20246;-66
2022/03/14 04:08:02;;;;;;;58.23;26.33;;;0.80;99.90;;;;;;5095464;28;20216;-66
2022/03/14 04:10:29;;;;;;;54.27;25.37;;;0.70;99.90;;;;;;5095479;28;20211;-66
2022/03/14 04:13:02;;;;;;;58.23;26.23;;;0.70;99.90;;;;;;5095517;28;20204;-66
2022/03/14 04:15:29;;;;;;;52.63;25.87;;;0.70;99.90;;;;;;5095358;28;20219;-66
2022/03/14 04:17:57;;;;;;;52.90;26.90;;;0.60;99.90;;;;;;5095643;28;20211;-67
2022/03/14 04:20:24;;;;;;;54.97;26.20;;;0.60;99.90;;;;;;5094843;28;20200;-66
2022/03/14 04:22:53;;;;;;;56.00;25.87;;;0.50;99.90;;;;;;5095146;28;20208;-66
2022/03/14 04:25:20;;;;;;;61.03;26.03;;;0.40;99.90;;;;;;5094772;28;20216;-65
2022/03/14 04:27:47;;;;;;;57.53;25.97;;;0.40;99.90;;;;;;5095042;28;20224;-66
2022/03/14 04:30:16;;;;;;;53.27;25.07;;;0.40;99.90;;;;;;5095080;28;20249;-65
2022/03/14 04:32:45;;;;;;;57.97;25.83;;;0.40;99.90;;;;;;5094556;28;20298;-66
2022/03/14 04:35:12;;;;;;;56.20;24.30;;;0.40;99.90;;;;;;5094678;28;20254;-66
2022/03/14 04:37:40;;;;;;;48.70;23.50;;;0.40;99.90;;;;;;5094524;28;20235;-65
2022/03/14 04:40:11;;;;;;;47.97;23.03;;;0.40;99.90;;;;;;5094836;28;20235;-67
2022/03/14 04:42:38;;;;;;;47.47;21.73;;;0.40;99.90;;;;;;5094356;28;20193;-66
2022/03/14 04:45:05;;;;;;;47.37;22.23;;;0.30;99.90;;;;;;5094478;28;20211;-67
2022/03/14 04:47:33;;;;;;;44.30;21.13;;;0.40;99.90;;;;;;5094187;28;20219;-66
2022/03/14 04:50:00;;;;;;;49.00;22.60;;;0.40;99.90;;;;;;5094330;28;20250;-66
2022/03/14 04:52:29;;;;;;;37.87;20.43;;;0.40;99.90;;;;;;5094494;28;20645;-66
2022/03/14 04:54:56;;;;;;;40.93;20.43;;;0.40;99.90;;;;;;5094556;28;20208;-66
2022/03/14 04:57:25;;;;;;;38.20;19.90;;;0.40;99.90;;;;;;5094247;28;20204;-67
2022/03/14 04:59:52;;;;;;;37.27;18.97;;;0.40;99.90;;;;;;5094183;28;20286;-67
2022/03/14 05:02:22;;;;;;;38.37;18.90;;;0.40;99.90;;;;;;5094153;28;20203;-66
2022/03/14 05:04:50;;;;;;;41.17;19.00;;;0.40;99.90;;;;;;5094027;28;20253;-67
2022/03/14 05:07:17;;;;;;;35.43;17.43;;;0.40;99.90;;;;;;5093480;28;20231;-66
2022/03/14 05:09:47;;;;;;;36.53;18.57;;;0.40;99.90;;;;;;5094068;28;20200;-66
2022/03/14 05:12:14;;;;;;;35.67;17.93;;;0.30;99.90;;;;;;5094686;28;20661;-66
2022/03/14 05:14:43;;;;;;;34.40;17.23;;;0.40;99.90;;;;;;5093826;28;20211;-66
2022/03/14 05:17:10;;;;;;;36.07;17.73;;;0.40;99.90;;;;;;5094003;28;20200;-68
2022/03/14 05:19:38;;;;;;;35.13;17.53;;;0.40;99.90;;;;;;5094057;28;20630;-66
2022/03/14 05:22:05;;;;;;;38.43;18.50;;;0.40;99.90;;;;;;5094002;28;20654;-66
2022/03/14 05:24:32;;;;;;;34.00;17.07;;;0.50;99.90;;;;;;5093465;28;20208;-67
2022/03/14 05:27:00;;;;;;;35.03;17.30;;;0.50;99.90;;;;;;5093509;28;20223;-65
2022/03/14 05:29:27;;;;;;;36.60;16.90;;;0.50;99.90;;;;;;5093416;28;20204;-66
2022/03/14 05:31:55;;;;;;;35.70;17.53;;;0.60;99.90;;;;;;5093449;28;20204;-67
2022/03/14 05:34:22;;;;;;;30.80;16.10;;;0.60;99.90;;;;;;5093619;28;20212;-67
2022/03/14 05:36:49;;;;;;;32.43;16.50;;;0.60;99.90;;;;;;5093431;28;20200;-66
2022/03/14 05:39:17;;;;;;;36.57;16.90;;;0.50;99.90;;;;;;5093052;28;20208;-67
2022/03/14 05:41:44;;;;;;;29.27;15.87;;;0.50;99.90;;;;;;5093396;28;20203;-65
2022/03/14 05:44:11;;;;;;;32.77;15.10;;;0.60;99.90;;;;;;5093587;28;20711;-66
2022/03/14 05:46:38;;;;;;;31.10;15.33;;;0.60;99.90;;;;;;5093830;28;20554;-66
2022/03/14 05:49:06;;;;;;;29.70;15.63;;;0.60;99.90;;;;;;5093374;28;20670;-65
2022/03/14 05:51:36;;;;;;;32.73;15.17;;;0.60;99.90;;;;;;5092880;28;20227;-66
2022/03/14 05:54:04;;;;;;;30.57;14.53;;;0.60;99.90;;;;;;5093156;28;20240;-67
2022/03/14 05:56:31;;;;;;;23.27;12.40;;;0.60;99.90;;;;;;5093117;28;20200;-65
2022/03/14 05:58:59;;;;;;;27.90;13.27;;;0.70;99.90;;;;;;5093274;28;20207;-66
2022/03/14 06:01:26;;;;;;;24.97;12.90;;;0.80;99.90;;;;;;5092697;28;20206;-66
2022/03/14 06:03:53;;;;;;;25.17;13.00;;;0.90;99.90;;;;;;5093168;28;20680;-65
2022/03/14 06:06:22;;;;;;;23.90;11.67;;;0.90;99.90;;;;;;5092654;28;20231;-65
2022/03/14 06:08:49;;;;;;;19.47;10.73;;;0.90;99.90;;;;;;5092821;28;20247;-66
2022/03/14 06:11:18;;;;;;;21.00;10.77;;;0.90;99.90;;;;;;5092681;28;20203;-66
2022/03/14 06:13:45;;;;;;;21.70;10.77;;;0.90;99.90;;;;;;5092751;28;20215;-65
2022/03/14 06:16:13;;;;;;;24.20;10.67;;;0.90;99.90;;;;;;5092271;28;20207;-67
2022/03/14 06:18:40;;;;;;;19.10;10.80;;;0.90;99.90;;;;;;5092137;28;20239;-66
2022/03/14 06:21:07;;;;;;;18.87;9.33;;;0.80;99.90;;;;;;5092462;28;20208;-66
2022/03/14 06:23:36;;;;;;;18.67;9.73;;;0.90;99.90;;;;;;5092436;28;20208;-67
2022/03/14 06:26:03;;;;;;;18.83;9.90;;;0.90;99.90;;;;;;5092478;28;20223;-65
2022/03/14 06:28:30;;;;;;;17.03;9.17;;;1.00;99.90;;;;;;5092552;28;20228;-65
2022/03/14 06:30:57;;;;;;;19.93;9.47;;;1.00;99.90;;;;;;5092490;28;20208;-66
2022/03/14 06:33:24;;;;;;;16.20;9.40;;;1.00;99.90;;;;;;5092309;28;20208;-67
2022/03/14 06:35:52;;;;;;;18.53;9.63;;;1.00;99.90;;;;;;5092840;28;20585;-66
2022/03/14 06:38:19;;;;;;;15.43;8.13;;;1.00;99.90;;;;;;5092359;28;20204;-64
2022/03/14 06:40:48;;;;;;;16.00;8.70;;;1.10;99.90;;;;;;5092672;28;20204;-66
2022/03/14 06:43:17;;;;;;;17.83;9.63;;;1.10;99.90;;;;;;5092193;28;20204;-66
2022/03/14 06:45:47;;;;;;;16.13;8.73;;;1.20;99.90;;;;;;5092447;28;20215;-66
2022/03/14 06:48:14;;;;;;;13.17;7.03;;;1.30;99.90;;;;;;5092146;28;20315;-67
2022/03/14 06:50:41;;;;;;;14.60;7.77;;;1.40;99.90;;;;;;5092428;28;20712;-66
2022/03/14 06:53:08;;;;;;;13.63;7.93;;;1.40;99.90;;;;;;5092154;28;20200;-65
2022/03/14 06:55:35;;;;;;;12.50;7.40;;;1.30;99.90;;;;;;5092138;28;20204;-67
2022/03/14 06:58:05;;;;;;;11.93;6.80;;;1.20;99.90;;;;;;5092190;28;20541;-66
2022/03/14 07:00:32;;;;;;;13.00;7.03;;;1.20;99.90;;;;;;5092044;28;20295;-66
2022/03/14 07:02:59;;;;;;;10.63;6.40;;;1.30;99.90;;;;;;5092204;28;20208;-66
2022/03/14 07:05:26;;;;;;;10.17;5.90;;;1.40;99.90;;;;;;5092030;28;20292;-66
2022/03/14 07:07:54;;;;;;;10.43;6.20;;;1.40;99.90;;;;;;5092353;28;20204;-66
2022/03/14 07:10:21;;;;;;;10.97;6.23;;;1.40;99.90;;;;;;5092364;28;20211;-66
2022/03/14 07:12:50;;;;;;;11.67;6.60;;;1.30;99.90;;;;;;5092271;28;20211;-66
2022/03/14 07:15:22;;;;;;;12.33;7.47;;;1.30;99.90;;;;;;5091741;28;20200;-66
2022/03/14 07:17:50;;;;;;;12.30;7.00;;;1.30;99.90;;;;;;5092265;28;20215;-66
2022/03/14 07:20:19;;;;;;;9.07;6.37;;;1.30;99.90;;;;;;5092031;28;20537;-67
2022/03/14 07:22:51;;;;;;;9.97;6.40;;;1.20;99.90;;;;;;5092285;28;20208;-67
2022/03/14 07:25:27;;;;;;;9.00;5.77;;;1.30;99.90;;;;;;5091526;28;20208;-67
2022/03/14 07:27:55;;;;;;;9.87;6.10;;;1.40;99.90;;;;;;5092221;28;20228;-66
2022/03/14 07:30:24;;;;;;;10.30;6.10;;;1.40;99.90;;;;;;5095739;28;20203;-66
2022/03/14 07:32:51;;;;;;;8.80;5.70;;;1.50;99.90;;;;;;5095715;28;20207;-66
2022/03/14 07:35:18;;;;;;;10.73;6.20;;;1.50;99.90;;;;;;5095672;28;20207;-67
2022/03/14 07:37:45;;;;;;;9.93;5.90;;;1.50;99.90;;;;;;5095735;28;20196;-67
2022/03/14 07:40:14;;;;;;;10.90;6.97;;;1.60;99.90;;;;;;5095963;28;20207;-66
2022/03/14 07:42:43;;;;;;;11.57;6.43;;;1.50;99.90;;;;;;5095928;28;20215;-67
2022/03/14 07:45:11;;;;;;;10.20;6.20;;;1.50;99.90;;;;;;5095883;28;20243;-66
2022/03/14 07:47:40;;;;;;;8.77;6.07;;;1.50;99.90;;;;;;5095626;28;20223;-66
2022/03/14 07:50:10;;;;;;;9.70;5.63;;;1.50;99.90;;;;;;5095693;28;20232;-66
2022/03/14 07:52:38;;;;;;;10.97;6.20;;;1.50;99.90;;;;;;5095497;28;20199;-67
2022/03/14 07:55:06;;;;;;;8.17;5.77;;;1.40;99.90;;;;;;5095314;28;20237;-65
2022/03/14 07:57:34;;;;;;;8.73;5.20;;;1.40;99.90;;;;;;5095864;28;20657;-67
2022/03/14 08:00:02;;;;;;;8.73;5.60;;;1.50;99.90;;;;;;5095168;28;20246;-66
2022/03/14 08:02:29;;;;;;;9.63;5.97;;;1.50;99.90;;;;;;5095493;28;20666;-67
2022/03/14 08:04:57;;;;;;;9.60;6.13;;;1.70;99.90;;;;;;5095631;28;20208;-67
2022/03/14 08:07:26;;;;;;;8.30;5.97;;;1.80;99.90;;;;;;5094942;28;20232;-67
2022/03/14 08:09:53;;;;;;;7.17;5.40;;;1.70;99.90;;;;;;5094912;28;20204;-67
2022/03/14 08:12:21;;;;;;;8.40;5.40;;;1.70;99.90;;;;;;5095326;28;20257;-66
2022/03/14 08:14:48;;;;;;;9.97;5.97;;;1.60;99.90;;;;;;5095187;28;20567;-68
2022/03/14 08:17:16;;;;;;;12.20;6.37;;;1.60;99.90;;;;;;5095062;28;20204;-67
2022/03/14 08:19:43;;;;;;;11.10;6.00;;;1.70;99.90;;;;;;5094814;28;20204;-67
2022/03/14 08:22:12;;;;;;;10.57;6.37;;;1.80;99.90;;;;;;5094897;28;20212;-65
2022/03/14 08:24:39;;;;;;;9.90;6.03;;;1.90;99.90;;;;;;5094911;28;20572;-66
2022/03/14 08:27:06;;;;;;;10.67;6.17;;;1.90;99.90;;;;;;5094630;28;20208;-66
2022/03/14 08:29:34;;;;;;;10.03;5.70;;;2.00;99.90;;;;;;5094986;28;20215;-68
2022/03/14 08:32:01;;;;;;;11.93;6.77;;;2.10;99.90;;;;;;5094536;28;20208;-66
2022/03/14 08:34:28;;;;;;;8.40;5.80;;;2.10;99.90;;;;;;5094585;28;20208;-66
2022/03/14 08:36:55;;;;;;;9.37;6.43;;;2.00;99.90;;;;;;5094447;28;20204;-66
2022/03/14 08:39:24;;;;;;;10.30;6.20;;;2.00;99.90;;;;;;5094462;28;20558;-66
2022/03/14 08:41:51;;;;;;;9.37;5.50;;;1.90;99.90;;;;;;5093877;28;20204;-66
2022/03/14 08:44:19;;;;;;;10.70;6.17;;;1.80;99.90;;;;;;5094820;28;20654;-67
2022/03/14 08:46:46;;;;;;;11.77;6.50;;;1.80;99.90;;;;;;5094846;28;20303;-66
2022/03/14 08:49:13;;;;;;;13.40;6.93;;;1.80;99.90;;;;;;5094393;28;20682;-66
2022/03/14 08:51:40;;;;;;;13.80;7.10;;;1.90;99.90;;;;;;5094272;28;20219;-66
2022/03/14 08:54:07;;;;;;;10.97;6.40;;;2.00;99.90;;;;;;5094345;28;20208;-66
2022/03/14 08:56:38;;;;;;;10.53;6.07;;;2.00;99.90;;;;;;5094480;28;20208;-67
2022/03/14 08:59:05;;;;;;;10.27;6.20;;;2.10;99.90;;;;;;5094195;28;20192;-67
2022/03/14 09:01:33;;;;;;;12.13;6.93;;;2.10;99.90;;;;;;5094646;28;20627;-67
2022/03/14 09:04:01;;;;;;;11.33;6.83;;;2.10;99.90;;;;;;5094310;28;20210;-67
2022/03/14 09:06:29;;;;;;;11.90;7.27;;;2.10;99.90;;;;;;5094418;28;20709;-65
2022/03/14 09:08:56;;;;;;;13.37;8.07;;;2.20;99.90;;;;;;5094635;28;20228;-67
2022/03/14 09:11:24;;;;;;;12.27;7.20;;;2.30;99.90;;;;;;5094042;28;20286;-66
2022/03/14 09:13:53;;;;;;;15.80;6.93;;;2.30;99.90;;;;;;5094056;28;20640;-66
2022/03/14 09:16:20;;;;;;;12.17;6.20;;;2.40;99.90;;;;;;5094203;28;20200;-67
2022/03/14 09:18:47;;;;;;;8.30;5.40;;;2.40;99.90;;;;;;5093957;28;20715;-65
2022/03/14 09:21:14;;;;;;;9.50;5.77;;;2.40;99.90;;;;;;5093947;28;20208;-66
2022/03/14 09:23:42;;;;;;;12.03;6.70;;;2.40;99.90;;;;;;5093881;28;20689;-67
2022/03/14 09:26:09;;;;;;;11.33;6.73;;;2.50;99.90;;;;;;5093585;28;20204;-67
2022/03/14 09:28:39;;;;;;;11.47;6.30;;;2.60;99.90;;;;;;5093341;28;20224;-66
2022/03/14 09:31:08;;;;;;;11.73;6.10;;;2.70;99.90;;;;;;5093650;28;20196;-66
2022/03/14 09:33:35;;;;;;;9.40;6.13;;;2.80;99.90;;;;;;5093689;28;20204;-67
2022/03/14 09:36:02;;;;;;;12.27;6.73;;;2.90;99.90;;;;;;5093151;28;20203;-66
2022/03/14 09:38:30;;;;;;;11.57;6.50;;;2.90;99.90;;;;;;5093603;28;20727;-66
2022/03/14 09:41:01;;;;;;;11.30;6.73;;;2.90;99.90;;;;;;5093779;28;20560;-67
2022/03/14 09:43:30;;;;;;;11.53;6.80;;;3.00;99.90;;;;;;5093276;28;20185;-68
2022/03/14 09:45:58;;;;;;;11.03;6.57;;;3.00;99.90;;;;;;5093214;28;20594;-67
2022/03/14 09:48:27;;;;;;;10.33;6.67;;;3.00;99.90;;;;;;5093342;28;20224;-66
2022/03/14 09:50:56;;;;;;;13.03;6.13;;;3.10;99.90;;;;;;5093143;28;20693;-65
2022/03/14 09:53:24;;;;;;;11.70;7.00;;;3.10;99.90;;;;;;5093007;28;20204;-67
2022/03/14 09:55:51;;;;;;;11.20;6.70;;;3.20;99.90;;;;;;5092979;28;20203;-66
2022/03/14 09:58:20;;;;;;;12.60;7.47;;;3.30;99.90;;;;;;5093344;28;20203;-66
2022/03/14 10:00:48;;;;;;;11.37;6.37;;;3.40;99.90;;;;;;5092978;28;20275;-65
2022/03/14 10:03:16;;;;;;;13.33;7.13;;;3.40;99.90;;;;;;5093181;28;20208;-66
2022/03/14 10:05:46;;;;;;;9.93;6.60;;;3.50;99.90;;;;;;5092607;28;20247;-66
2022/03/14 10:08:13;;;;;;;8.87;6.30;;;3.60;99.90;;;;;;5092811;28;20212;-65
2022/03/14 10:10:42;;;;;;;11.33;6.67;;;3.60;99.90;;;;;;5093059;28;20592;-66
2022/03/14 10:13:10;;;;;;;9.77;6.53;;;3.70;99.90;;;;;;5093017;28;20204;-68
2022/03/14 10:15:40;;;;;;;10.17;5.83;;;3.70;99.90;;;;;;5092378;28;20214;-67
2022/03/14 10:18:11;;;;;;;9.40;5.73;;;3.80;99.90;;;;;;5092948;28;20231;-65
2022/03/14 10:20:40;;;;;;;11.00;5.73;;;3.80;99.90;;;;;;5092424;28;20207;-66
2022/03/14 10:23:09;;;;;;;8.70;5.70;;;3.90;99.90;;;;;;5092370;28;20200;-67
2022/03/14 10:25:43;;;;;;;12.83;6.17;;;4.00;99.90;;;;;;5092599;28;20208;-66
2022/03/14 10:28:10;;;;;;;10.97;6.90;;;4.00;99.90;;;;;;5092342;28;20257;-66
2022/03/14 10:30:37;;;;;;;13.13;6.77;;;4.00;99.90;;;;;;5092347;28;20208;-67
2022/03/14 10:33:14;;;;;;;9.70;6.00;;;4.10;99.90;;;;;;5092441;28;20215;-66
2022/03/14 10:35:43;;;;;;;8.53;5.87;;;4.10;99.90;;;;;;5092437;28;20633;-67
2022/03/14 10:38:13;;;;;;;8.73;5.93;;;4.20;99.90;;;;;;5092689;28;20231;-66
2022/03/14 10:40:42;;;;;;;11.07;6.10;;;4.30;99.90;;;;;;5092443;28;20191;-67
2022/03/14 10:43:21;;;;;;;9.37;5.90;;;4.40;99.90;;;;;;5092236;28;20203;-66
2022/03/14 10:45:48;;;;;;;11.40;5.80;;;4.40;99.90;;;;;;5092468;28;20552;-66
2022/03/14 10:48:16;;;;;;;9.60;5.80;;;4.50;99.90;;;;;;5091919;28;20220;-67
2022/03/14 10:50:43;;;;;;;14.47;6.73;;;4.50;99.90;;;;;;5092022;28;20223;-66
2022/03/14 10:53:18;;;;;;;11.93;6.73;;;4.60;99.90;;;;;;5092575;28;20231;-67
2022/03/14 10:55:47;;;;;;;11.23;6.80;;;4.60;99.90;;;;;;5092125;28;20183;-65
2022/03/14 10:58:17;;;;;;;10.80;5.97;;;4.60;99.90;;;;;;5091974;28;20196;-66
2022/03/14 11:00:50;;;;;;;7.70;5.50;;;4.60;99.90;;;;;;5091835;28;20212;-65
2022/03/14 11:03:25;;;;;;;9.53;5.57;;;4.60;99.90;;;;;;5091802;28;20206;-66
2022/03/14 11:05:53;;;;;;;10.47;5.53;;;4.50;99.90;;;;;;5091748;28;20255;-66
2022/03/14 11:08:29;;;;;;;8.73;5.37;;;4.60;99.90;;;;;;5092093;28;20709;-68
2022/03/14 11:10:56;;;;;;;9.30;5.57;;;4.80;99.90;;;;;;5092052;28;20187;-67
2022/03/14 11:13:24;;;;;;;8.83;5.40;;;4.80;99.90;;;;;;5091957;28;20229;-66
2022/03/14 11:15:51;;;;;;;9.27;5.67;;;4.80;99.90;;;;;;5092254;28;20204;-66
2022/03/14 11:18:19;;;;;;;9.80;5.97;;;4.70;99.90;;;;;;5092258;28;20549;-67
2022/03/14 11:20:46;;;;;;;23.03;10.37;;;4.80;99.90;;;;;;5091760;28;20264;-67
2022/03/14 11:23:14;;;;;;;20.13;9.40;;;4.90;99.90;;;;;;5092267;28;20696;-66
2022/03/14 11:25:45;;;;;;;22.27;9.10;;;5.00;99.90;;;;;;5091737;28;20204;-65
2022/03/14 11:28:17;;;;;;;18.97;9.30;;;5.00;99.90;;;;;;5091660;28;20245;-66
2022/03/14 11:30:51;;;;;;;19.50;11.13;;;5.10;99.90;;;;;;5091831;28;20242;-66
2022/03/14 11:33:21;;;;;;;27.77;15.67;;;5.10;99.90;;;;;;5091792;28;20188;-67
2022/03/14 11:35:48;;;;;;;30.57;16.67;;;5.20;99.90;;;;;;5091789;28;20658;-67
2022/03/14 11:38:16;;;;;;;28.63;15.97;;;5.20;99.90;;;;;;5091788;28;20211;-66
2022/03/14 11:40:45;;;;;;;19.57;11.07;;;5.30;99.90;;;;;;5091601;28;20680;-66
2022/03/14 11:43:13;;;;;;;13.90;8.13;;;5.30;99.90;;;;;;5091680;28;20208;-67
2022/03/14 11:45:41;;;;;;;15.53;7.33;;;5.40;99.90;;;;;;5091761;28;20596;-65
2022/03/14 11:48:09;;;;;;;19.63;10.63;;;5.40;99.90;;;;;;5091567;28;20215;-66
2022/03/14 11:50:44;;;;;;;22.73;11.93;;;5.50;99.90;;;;;;5091313;28;20324;-66
2022/03/14 11:53:19;;;;;;;26.33;14.93;;;5.40;99.90;;;;;;5091459;28;20211;-65
2022/03/14 11:55:55;;;;;;;22.73;12.37;;;5.50;99.90;;;;;;5091416;28;20188;-68
2022/03/14 11:58:30;;;;;;;22.00;12.70;;;5.50;99.90;;;;;;5091330;28;20184;-65
2022/03/14 12:00:57;;;;;;;22.63;13.50;;;5.50;99.90;;;;;;5091183;28;20203;-67
2022/03/14 12:03:36;;;;;;;19.97;12.27;;;5.50;99.90;;;;;;5091117;28;20211;-66
2022/03/14 12:06:03;;;;;;;18.93;9.53;;;5.50;99.90;;;;;;5091307;28;20235;-66
2022/03/14 12:09:00;;;;;;;19.03;10.73;;;5.50;99.90;;;;;;5091095;28;20231;-66
2022/03/14 12:11:36;;;;;;;18.93;11.27;;;5.60;99.90;;;;;;5091449;28;20188;-66
2022/03/14 12:14:03;;;;;;;24.53;13.13;;;5.60;99.90;;;;;;5091476;28;20566;-68
2022/03/14 12:16:37;;;;;;;26.53;13.60;;;5.70;99.90;;;;;;5094093;28;20301;-67
2022/03/14 12:19:29;;;;;;;18.40;10.80;;;5.70;99.90;;;;;;5095076;28;20214;-67
2022/03/14 12:21:57;;;;;;;16.23;9.00;;;5.80;99.90;;;;;;5095067;28;20188;-67
2022/03/14 12:24:45;;;;;;;16.00;9.30;;;5.80;99.90;;;;;;5094481;28;20204;-67
2022/03/14 12:27:22;;;;;;;14.73;8.90;;;5.80;99.90;;;;;;5094814;28;20607;-66
2022/03/14 12:29:50;;;;;;;14.33;8.63;;;5.90;99.90;;;;;;5094751;28;20204;-66
2022/03/14 12:32:28;;;;;;;16.10;10.00;;;6.00;99.90;;;;;;5094432;28;20200;-66
2022/03/14 12:35:05;;;;;;;16.53;10.03;;;6.00;99.90;;;;;;5094927;28;20538;-65
2022/03/14 12:37:41;;;;;;;21.63;10.97;;;6.00;99.90;;;;;;5094370;28;20195;-66
2022/03/14 12:40:13;;;;;;;18.03;10.57;;;6.00;99.90;;;;;;5094871;28;20188;-66
2022/03/14 12:42:42;;;;;;;19.60;10.80;;;6.00;99.90;;;;;;5094372;28;20195;-66
2022/03/14 12:45:24;;;;;;;19.90;11.47;;;6.00;99.90;;;;;;5094741;28;20207;-66
2022/03/14 12:47:58;;;;;;;19.77;11.23;;;6.00;99.90;;;;;;5094609;28;20212;-66
2022/03/14 12:51:06;;;;;;;22.73;13.20;;;6.10;99.90;;;;;;5094276;28;20605;-66